Time;durP1;ratioP1;P1;durP2;ratioP2;P2;SDS_P1;SDS_P2;PMS_P1;PMS_P2;Temp;Humidity;BMP_temperature;BMP_pressure;BME280_temperature;BME280_humidity;BME280_pressure;Samples;Min_cycle;Max_cycle;Signal;HPM_P1;HPM_P2
2023/07/24 02:00:48;;;;;;;2.72;2.47;;;;;;;;;;4785006;28;20360;-78
2023/07/24 02:03:15;;;;;;;7.53;3.10;;;;;;;;;;4270324;33;20080;-78
2023/07/24 02:05:41;;;;;;;5.10;2.83;;;;;;;;;;4271735;33;20068;-79
2023/07/24 02:08:08;;;;;;;4.05;2.58;;;;;;;;;;4270302;33;20107;-78
2023/07/24 02:10:36;;;;;;;9.00;2.60;;;;;;;;;;4268451;33;20025;-80
2023/07/24 02:13:03;;;;;;;3.22;2.62;;;;;;;;;;4267537;33;20046;-79
2023/07/24 02:15:29;;;;;;;3.40;2.55;;;;;;;;;;4251788;33;20064;-78
2023/07/24 02:17:57;;;;;;;6.30;2.70;;;;;;;;;;4252556;33;20079;-78
2023/07/24 02:20:23;;;;;;;3.53;2.35;;;;;;;;;;4251025;33;20038;-82
2023/07/24 02:22:50;;;;;;;5.65;2.65;;;;;;;;;;4254521;33;20068;-78
2023/07/24 02:25:16;;;;;;;3.55;2.75;;;;;;;;;;4255209;33;20056;-78
2023/07/24 02:27:43;;;;;;;2.53;2.33;;;;;;;;;;4239566;33;20095;-79
2023/07/24 02:30:09;;;;;;;2.35;2.12;;;;;;;;;;4241615;33;20102;-79
2023/07/24 02:32:36;;;;;;;4.40;2.65;;;;;;;;;;4222208;34;20177;-80
2023/07/24 02:35:02;;;;;;;3.28;2.37;;;;;;;;;;4223063;34;20103;-79
2023/07/24 02:37:29;;;;;;;2.65;2.45;;;;;;;;;;4222316;34;20401;-79
2023/07/24 02:39:55;;;;;;;5.62;2.75;;;;;;;;;;4194451;34;20051;-79
2023/07/24 02:42:22;;;;;;;6.05;2.65;;;;;;;;;;4179647;34;20064;-79
2023/07/24 02:44:48;;;;;;;4.30;2.65;;;;;;;;;;4169430;34;20072;-76
2023/07/24 02:47:15;;;;;;;6.95;2.30;;;;;;;;;;4177575;34;20552;-78
2023/07/24 02:49:41;;;;;;;4.75;2.60;;;;;;;;;;4170472;34;20054;-78
2023/07/24 02:52:08;;;;;;;11.55;6.65;;;;;;;;;;4181097;34;20036;-78
2023/07/24 02:54:34;;;;;;;5.78;2.67;;;;;;;;;;4178651;34;20229;-79
2023/07/24 02:57:02;;;;;;;5.50;3.55;;;;;;;;;;4180732;34;20060;-78
2023/07/24 02:59:29;;;;;;;5.97;3.05;;;;;;;;;;4170167;34;20041;-79
2023/07/24 03:01:56;;;;;;;6.93;3.40;;;;;;;;;;4177244;34;20064;-79
2023/07/24 03:04:23;;;;;;;5.55;3.00;;;;;;;;;;4189499;34;20053;-78
2023/07/24 03:06:50;;;;;;;5.70;2.85;;;;;;;;;;4166433;34;20052;-80
2023/07/24 03:09:16;;;;;;;4.85;2.67;;;;;;;;;;4157192;34;20931;-78
2023/07/24 03:11:43;;;;;;;9.23;2.45;;;;;;;;;;4165073;34;20070;-78
2023/07/24 03:14:10;;;;;;;5.12;2.83;;;;;;;;;;4177932;34;20438;-78
2023/07/24 03:16:37;;;;;;;5.80;3.00;;;;;;;;;;4179425;34;20091;-80
2023/07/24 03:19:04;;;;;;;4.80;3.62;;;;;;;;;;4169807;34;20052;-78
2023/07/24 03:21:31;;;;;;;4.68;3.40;;;;;;;;;;4181033;34;20421;-79
2023/07/24 03:23:58;;;;;;;6.82;2.58;;;;;;;;;;4181136;34;20039;-79
2023/07/24 03:26:24;;;;;;;16.90;4.20;;;;;;;;;;4180883;34;20899;-79
2023/07/24 03:28:51;;;;;;;9.25;2.70;;;;;;;;;;4153705;34;20801;-81
2023/07/24 03:31:17;;;;;;;2.78;2.33;;;;;;;;;;4140062;34;20099;-78
2023/07/24 03:33:44;;;;;;;4.30;3.62;;;;;;;;;;4140126;34;20052;-78
2023/07/24 03:36:11;;;;;;;5.43;3.35;;;;;;;;;;4140471;34;20813;-78
2023/07/24 03:38:37;;;;;;;3.22;2.67;;;;;;;;;;4183799;34;20105;-77
2023/07/24 03:41:04;;;;;;;5.03;2.62;;;;;;;;;;4194772;34;20449;-80
2023/07/24 03:43:31;;;;;;;4.32;2.42;;;;;;;;;;4196289;34;20077;-79
2023/07/24 03:45:59;;;;;;;3.85;2.70;;;;;;;;;;4196656;34;20089;-78
2023/07/24 03:48:25;;;;;;;5.22;3.25;;;;;;;;;;4195815;34;20032;-79
2023/07/24 03:50:57;;;;;;;3.10;2.42;;;;;;;;;;4182841;34;20044;-77
2023/07/24 03:53:24;;;;;;;3.85;2.40;;;;;;;;;;4171197;34;20065;-78
2023/07/24 03:55:50;;;;;;;4.35;3.03;;;;;;;;;;4184978;34;20093;-79
2023/07/24 03:58:16;;;;;;;9.68;2.85;;;;;;;;;;4172684;34;20032;-78
2023/07/24 04:00:49;;;;;;;3.95;2.58;;;;;;;;;;4196250;34;20047;-78
2023/07/24 04:03:17;;;;;;;5.80;2.22;;;;;;;;;;4237394;33;20582;-77
2023/07/24 04:05:43;;;;;;;7.80;4.10;;;;;;;;;;4238120;33;20080;-79
2023/07/24 04:08:09;;;;;;;9.02;2.65;;;;;;;;;;4239781;33;20072;-78
2023/07/24 04:10:36;;;;;;;3.35;2.85;;;;;;;;;;4240877;33;20058;-78
2023/07/24 04:13:02;;;;;;;4.55;2.70;;;;;;;;;;4223641;33;20034;-80
2023/07/24 04:15:29;;;;;;;5.37;3.17;;;;;;;;;;4233248;33;20046;-79
2023/07/24 04:17:55;;;;;;;4.68;2.58;;;;;;;;;;4224157;33;20904;-77
2023/07/24 04:20:22;;;;;;;4.32;3.15;;;;;;;;;;4235904;33;20054;-79
2023/07/24 04:22:48;;;;;;;5.43;2.72;;;;;;;;;;4221560;34;20066;-79
2023/07/24 04:25:15;;;;;;;3.97;2.45;;;;;;;;;;4220682;34;20080;-79
2023/07/24 04:27:41;;;;;;;5.90;2.62;;;;;;;;;;4220148;34;20023;-79
2023/07/24 04:30:08;;;;;;;19.30;3.55;;;;;;;;;;4207107;34;20117;-77
2023/07/24 04:32:34;;;;;;;5.40;2.97;;;;;;;;;;4204536;34;20109;-78
2023/07/24 04:35:01;;;;;;;3.60;2.70;;;;;;;;;;4207359;34;20081;-78
2023/07/24 04:37:27;;;;;;;10.60;2.72;;;;;;;;;;4204875;34;20070;-79
2023/07/24 04:39:54;;;;;;;4.75;2.20;;;;;;;;;;4220727;33;20051;-80
2023/07/24 04:42:20;;;;;;;6.68;2.78;;;;;;;;;;4193058;34;20106;-81
2023/07/24 04:44:46;;;;;;;8.63;2.78;;;;;;;;;;4163910;34;20041;-78
2023/07/24 04:47:13;;;;;;;11.45;3.42;;;;;;;;;;4144789;34;20845;-78
2023/07/24 04:49:40;;;;;;;4.80;2.90;;;;;;;;;;4163516;34;20056;-82
2023/07/24 04:52:06;;;;;;;9.68;2.72;;;;;;;;;;4156484;34;20226;-79
2023/07/24 04:54:34;;;;;;;4.22;2.80;;;;;;;;;;4168373;34;20053;-78
2023/07/24 04:57:01;;;;;;;8.43;2.78;;;;;;;;;;4157364;34;20203;-80
2023/07/24 04:59:28;;;;;;;6.07;2.80;;;;;;;;;;4156801;34;20088;-78
2023/07/24 05:01:54;;;;;;;5.75;3.20;;;;;;;;;;4174053;34;20107;-78
2023/07/24 05:04:21;;;;;;;4.70;2.95;;;;;;;;;;4170761;34;20078;-79
2023/07/24 05:06:47;;;;;;;6.12;3.28;;;;;;;;;;4196154;34;20079;-80
2023/07/24 05:09:14;;;;;;;12.52;2.85;;;;;;;;;;4195358;34;20515;-78
2023/07/24 05:11:43;;;;;;;10.48;3.03;;;;;;;;;;4208169;34;20039;-81
2023/07/24 05:14:09;;;;;;;13.05;2.58;;;;;;;;;;4209129;34;20077;-79
2023/07/24 05:16:36;;;;;;;6.03;2.67;;;;;;;;;;4214300;33;20450;-79
2023/07/24 05:19:02;;;;;;;12.60;2.75;;;;;;;;;;4209646;34;20055;-79
2023/07/24 05:21:29;;;;;;;5.80;2.47;;;;;;;;;;4184669;34;20449;-79
2023/07/24 05:23:55;;;;;;;6.18;2.50;;;;;;;;;;4165701;34;20070;-80
2023/07/24 05:26:22;;;;;;;9.77;2.95;;;;;;;;;;4182138;34;20032;-79
2023/07/24 05:28:48;;;;;;;3.03;2.40;;;;;;;;;;4181838;34;20056;-79
2023/07/24 05:31:15;;;;;;;2.72;2.47;;;;;;;;;;4167806;34;20036;-78
2023/07/24 05:33:41;;;;;;;5.75;2.70;;;;;;;;;;4167783;34;20173;-79
2023/07/24 05:36:07;;;;;;;3.10;2.15;;;;;;;;;;4165918;34;20113;-82
2023/07/24 05:38:34;;;;;;;12.23;2.70;;;;;;;;;;4157372;34;20078;-81
2023/07/24 05:41:02;;;;;;;5.97;2.60;;;;;;;;;;4154734;34;20073;-80
2023/07/24 05:43:30;;;;;;;4.75;2.92;;;;;;;;;;4154032;34;20052;-79
2023/07/24 05:45:57;;;;;;;7.65;2.80;;;;;;;;;;4153935;34;20082;-81
2023/07/24 05:48:24;;;;;;;9.00;2.37;;;;;;;;;;4140379;34;20082;-79
2023/07/24 05:50:50;;;;;;;11.02;2.50;;;;;;;;;;4165270;34;20032;-80
2023/07/24 05:53:17;;;;;;;9.43;2.47;;;;;;;;;;4178322;34;20052;-81
2023/07/24 05:55:43;;;;;;;4.18;2.53;;;;;;;;;;4178451;34;20817;-81
2023/07/24 05:58:09;;;;;;;12.77;3.78;;;;;;;;;;4189979;34;20028;-81
2023/07/24 06:00:36;;;;;;;11.27;2.92;;;;;;;;;;4194546;34;20897;-79
2023/07/24 06:03:03;;;;;;;3.78;2.47;;;;;;;;;;4184182;34;20051;-79
2023/07/24 06:05:30;;;;;;;4.90;3.10;;;;;;;;;;4195285;34;20054;-79
2023/07/24 06:07:56;;;;;;;5.35;1.80;;;;;;;;;;4204121;34;20059;-80
2023/07/24 06:10:22;;;;;;;5.47;2.37;;;;;;;;;;4193447;34;20065;-80
2023/07/24 06:12:48;;;;;;;2.05;1.70;;;;;;;;;;4195828;34;20083;-79
2023/07/24 06:15:15;;;;;;;2.42;2.10;;;;;;;;;;4185542;34;20056;-81
2023/07/24 06:17:42;;;;;;;20.90;2.47;;;;;;;;;;4178700;34;20044;-80
2023/07/24 06:20:08;;;;;;;4.80;2.65;;;;;;;;;;4178701;34;20196;-79
2023/07/24 06:22:35;;;;;;;4.80;2.55;;;;;;;;;;4180731;34;21081;-81
2023/07/24 06:25:03;;;;;;;6.97;2.35;;;;;;;;;;4181131;34;20058;-79
2023/07/24 06:27:30;;;;;;;1.85;1.75;;;;;;;;;;4169747;34;20124;-79
2023/07/24 06:29:56;;;;;;;3.17;1.83;;;;;;;;;;4161981;34;20044;-79
2023/07/24 06:32:23;;;;;;;6.72;2.00;;;;;;;;;;4171083;34;20087;-79
2023/07/24 06:34:49;;;;;;;10.95;1.75;;;;;;;;;;4171905;34;20087;-78
2023/07/24 06:37:17;;;;;;;5.68;2.08;;;;;;;;;;4175227;34;20058;-79
2023/07/24 06:39:45;;;;;;;5.43;2.95;;;;;;;;;;4200560;34;20179;-79
2023/07/24 06:42:12;;;;;;;2.50;2.28;;;;;;;;;;4226042;33;20756;-83
2023/07/24 06:44:39;;;;;;;6.45;2.75;;;;;;;;;;4206601;34;20050;-80
2023/07/24 06:47:05;;;;;;;2.00;1.90;;;;;;;;;;4232699;33;20544;-80
2023/07/24 06:49:32;;;;;;;3.45;1.98;;;;;;;;;;4249923;33;20064;-80
2023/07/24 06:51:58;;;;;;;3.67;2.17;;;;;;;;;;4226489;33;20053;-80
2023/07/24 06:54:25;;;;;;;5.90;1.77;;;;;;;;;;4233544;33;20207;-79
2023/07/24 06:56:51;;;;;;;4.80;2.28;;;;;;;;;;4209750;34;20050;-79
2023/07/24 06:59:17;;;;;;;2.78;2.28;;;;;;;;;;4204918;34;20203;-79
2023/07/24 07:01:44;;;;;;;5.00;2.10;;;;;;;;;;4165145;34;20078;-77
2023/07/24 07:04:12;;;;;;;2.53;1.90;;;;;;;;;;4164222;34;20063;-79
2023/07/24 07:06:39;;;;;;;8.73;2.28;;;;;;;;;;4164145;34;20185;-80
2023/07/24 07:09:06;;;;;;;6.15;3.00;;;;;;;;;;4167393;34;20125;-78
2023/07/24 07:11:32;;;;;;;3.70;2.33;;;;;;;;;;4207171;34;20201;-79
2023/07/24 07:13:59;;;;;;;2.67;2.30;;;;;;;;;;4207411;34;20089;-80
2023/07/24 07:16:25;;;;;;;7.47;2.55;;;;;;;;;;4195771;34;20650;-81
2023/07/24 07:18:54;;;;;;;5.40;1.92;;;;;;;;;;4193888;34;20405;-80
2023/07/24 07:21:21;;;;;;;5.55;1.80;;;;;;;;;;4195680;34;20039;-79
2023/07/24 07:23:48;;;;;;;2.75;2.17;;;;;;;;;;4207415;34;20090;-80
2023/07/24 07:26:14;;;;;;;3.25;2.20;;;;;;;;;;4207025;34;20468;-80
2023/07/24 07:28:40;;;;;;;2.28;2.12;;;;;;;;;;4182067;34;20055;-78
2023/07/24 07:31:07;;;;;;;5.97;2.17;;;;;;;;;;4163962;34;20078;-79
2023/07/24 07:33:33;;;;;;;4.18;1.90;;;;;;;;;;4156028;34;20066;-78
2023/07/24 07:36:02;;;;;;;16.58;2.30;;;;;;;;;;4176000;34;20069;-79
2023/07/24 07:38:29;;;;;;;6.45;1.77;;;;;;;;;;4175495;34;20051;-81
2023/07/24 07:40:55;;;;;;;2.78;2.10;;;;;;;;;;4180257;34;20036;-81
2023/07/24 07:43:21;;;;;;;3.35;2.10;;;;;;;;;;4188432;34;20407;-79
2023/07/24 07:45:49;;;;;;;3.60;2.03;;;;;;;;;;4193925;34;20032;-78
2023/07/24 07:48:17;;;;;;;4.40;2.15;;;;;;;;;;4194758;34;20120;-79
2023/07/24 07:50:43;;;;;;;2.78;2.00;;;;;;;;;;4185266;34;20040;-80
2023/07/24 07:53:11;;;;;;;7.20;2.30;;;;;;;;;;4172047;34;20052;-82
2023/07/24 07:55:37;;;;;;;2.55;2.10;;;;;;;;;;4162953;34;20047;-80
2023/07/24 07:58:03;;;;;;;37.03;12.85;;;;;;;;;;4165846;34;20062;-78
2023/07/24 08:00:29;;;;;;;22.30;7.80;;;;;;;;;;4186924;34;20055;-80
2023/07/24 08:03:01;;;;;;;39.67;14.18;;;;;;;;;;4185066;34;20106;-78
2023/07/24 08:05:27;;;;;;;24.05;9.90;;;;;;;;;;4193405;34;20074;-78
2023/07/24 08:07:54;;;;;;;22.37;6.97;;;;;;;;;;4195343;34;20781;-78
2023/07/24 08:10:20;;;;;;;12.80;6.07;;;;;;;;;;4195678;34;20039;-80
2023/07/24 08:12:47;;;;;;;11.02;4.47;;;;;;;;;;4214610;34;20427;-80
2023/07/24 08:15:13;;;;;;;14.15;5.57;;;;;;;;;;4213144;33;20113;-79
2023/07/24 08:17:39;;;;;;;9.68;4.03;;;;;;;;;;4226701;33;20061;-85
2023/07/24 08:20:06;;;;;;;12.05;7.93;;;;;;;;;;4222793;33;20069;-81
2023/07/24 08:22:33;;;;;;;28.62;18.52;;;;;;;;;;4226064;34;20070;-83
2023/07/24 08:24:59;;;;;;;5.82;4.47;;;;;;;;;;4209405;34;20055;-80
2023/07/24 08:27:26;;;;;;;11.73;8.05;;;;;;;;;;4204583;34;20043;-87
2023/07/24 08:29:52;;;;;;;6.12;4.07;;;;;;;;;;4185220;34;20402;-81
2023/07/24 08:32:26;;;;;;;7.62;5.22;;;;;;;;;;4175059;34;20077;-79
2023/07/24 08:34:52;;;;;;;17.75;3.50;;;;;;;;;;4190155;34;20027;-80
2023/07/24 08:37:21;;;;;;;4.80;2.75;;;;;;;;;;4180825;34;20047;-82
2023/07/24 08:39:47;;;;;;;11.57;3.47;;;;;;;;;;4179032;34;20063;-80
2023/07/24 08:42:14;;;;;;;3.58;2.53;;;;;;;;;;4180003;34;20136;-80
2023/07/24 08:44:41;;;;;;;3.67;2.70;;;;;;;;;;4166507;34;20044;-82
2023/07/24 08:47:13;;;;;;;10.23;2.72;;;;;;;;;;4175503;34;20393;-78
2023/07/24 08:49:42;;;;;;;7.37;2.85;;;;;;;;;;4156548;34;20036;-83
2023/07/24 08:52:09;;;;;;;6.78;2.42;;;;;;;;;;4165802;34;20064;-80
2023/07/24 08:54:39;;;;;;;4.78;2.45;;;;;;;;;;4179616;34;20149;-81
2023/07/24 08:57:08;;;;;;;14.45;2.75;;;;;;;;;;4168369;34;20093;-80
2023/07/24 08:59:35;;;;;;;5.75;2.80;;;;;;;;;;4166694;34;20126;-82
2023/07/24 09:02:01;;;;;;;4.45;2.42;;;;;;;;;;4184739;34;20726;-80
2023/07/24 09:04:28;;;;;;;2.83;2.55;;;;;;;;;;4206798;34;20583;-79
2023/07/24 09:06:56;;;;;;;5.62;2.72;;;;;;;;;;4204228;34;20044;-78
2023/07/24 09:09:22;;;;;;;5.80;3.20;;;;;;;;;;4181904;34;20071;-80
2023/07/24 09:11:49;;;;;;;20.67;2.97;;;;;;;;;;4192040;34;20056;-82
2023/07/24 09:14:21;;;;;;;6.90;2.85;;;;;;;;;;4194090;34;20040;-78
2023/07/24 09:16:48;;;;;;;4.45;2.42;;;;;;;;;;4206377;34;20118;-79
2023/07/24 09:19:18;;;;;;;6.43;2.80;;;;;;;;;;4194875;34;20064;-79
2023/07/24 09:21:44;;;;;;;3.87;2.92;;;;;;;;;;4193471;34;20055;-82
2023/07/24 09:24:11;;;;;;;5.30;2.55;;;;;;;;;;4179217;34;20077;-79
2023/07/24 09:26:50;;;;;;;4.05;2.45;;;;;;;;;;4203798;34;20078;-80
2023/07/24 09:29:18;;;;;;;13.15;3.00;;;;;;;;;;4220438;34;20153;-79
2023/07/24 09:31:46;;;;;;;7.53;2.75;;;;;;;;;;4204949;34;20043;-79
2023/07/24 09:34:16;;;;;;;10.27;2.60;;;;;;;;;;4178916;34;20626;-79
2023/07/24 09:36:44;;;;;;;4.97;2.53;;;;;;;;;;4167836;34;20107;-79
2023/07/24 09:39:11;;;;;;;5.37;2.22;;;;;;;;;;4170657;34;20032;-80
2023/07/24 09:41:39;;;;;;;2.72;2.53;;;;;;;;;;4155294;34;20083;-83
2023/07/24 09:44:06;;;;;;;6.07;3.05;;;;;;;;;;4167786;34;20078;-82
2023/07/24 09:46:33;;;;;;;5.53;2.87;;;;;;;;;;4168080;34;20065;-79
2023/07/24 09:48:59;;;;;;;14.25;2.50;;;;;;;;;;4166393;34;20072;-80
2023/07/24 09:51:33;;;;;;;7.97;4.00;;;;;;;;;;4184859;34;20397;-80
2023/07/24 09:54:07;;;;;;;7.50;2.53;;;;;;;;;;4193117;34;20039;-80
2023/07/24 09:56:34;;;;;;;3.37;2.75;;;;;;;;;;4235789;33;20046;-80
2023/07/24 09:59:02;;;;;;;4.45;3.10;;;;;;;;;;4237922;33;20070;-81
2023/07/24 10:01:30;;;;;;;3.47;2.37;;;;;;;;;;4245802;33;20447;-80
2023/07/24 10:03:58;;;;;;;8.95;2.60;;;;;;;;;;4263122;33;20553;-80
2023/07/24 10:06:24;;;;;;;18.15;2.97;;;;;;;;;;4280198;33;20067;-80
2023/07/24 10:08:51;;;;;;;4.05;3.22;;;;;;;;;;4281275;33;20057;-81
2023/07/24 10:11:19;;;;;;;6.18;3.35;;;;;;;;;;4276658;33;20089;-81
2023/07/24 10:13:45;;;;;;;3.85;3.00;;;;;;;;;;4273260;33;20029;-80
2023/07/24 10:16:12;;;;;;;7.47;3.35;;;;;;;;;;4276660;33;20053;-80
2023/07/24 10:18:45;;;;;;;3.12;2.83;;;;;;;;;;4266659;33;20093;-80
2023/07/24 10:21:12;;;;;;;3.72;3.03;;;;;;;;;;4267406;33;20041;-80
2023/07/24 10:23:43;;;;;;;4.93;2.60;;;;;;;;;;4263233;33;20470;-85
2023/07/24 10:26:10;;;;;;;3.12;2.80;;;;;;;;;;4252473;33;20189;-80
2023/07/24 10:28:40;;;;;;;2.85;2.37;;;;;;;;;;4252890;33;20368;-80
2023/07/24 10:31:21;;;;;;;6.80;2.97;;;;;;;;;;4264601;33;20115;-80
2023/07/24 10:33:47;;;;;;;6.68;3.15;;;;;;;;;;4263176;33;20081;-80
2023/07/24 10:36:18;;;;;;;4.95;2.83;;;;;;;;;;4250339;33;20362;-80
2023/07/24 10:38:45;;;;;;;5.82;2.75;;;;;;;;;;4240906;33;20034;-79
2023/07/24 10:41:11;;;;;;;3.55;2.53;;;;;;;;;;4250711;33;20056;-81
2023/07/24 10:43:45;;;;;;;3.22;2.87;;;;;;;;;;4234458;33;20078;-82
2023/07/24 10:46:12;;;;;;;7.70;2.62;;;;;;;;;;4239464;33;20117;-79
2023/07/24 10:48:42;;;;;;;15.73;3.75;;;;;;;;;;4225491;33;20441;-80
2023/07/24 10:51:09;;;;;;;3.12;2.80;;;;;;;;;;4222822;34;20051;-81
2023/07/24 10:53:38;;;;;;;5.07;2.40;;;;;;;;;;4220514;34;20046;-81
2023/07/24 10:56:05;;;;;;;7.28;3.08;;;;;;;;;;4222590;34;20081;-82
2023/07/24 10:58:38;;;;;;;3.85;2.72;;;;;;;;;;4222570;33;20047;-80
2023/07/24 11:01:05;;;;;;;5.62;3.35;;;;;;;;;;4352923;28;20503;-82
2023/07/24 11:03:32;;;;;;;8.55;3.00;;;;;;;;;;4208501;34;20236;-80
2023/07/24 11:05:58;;;;;;;3.90;2.85;;;;;;;;;;4199354;34;20069;-82
2023/07/24 11:08:25;;;;;;;6.40;2.95;;;;;;;;;;4217010;33;20051;-82
2023/07/24 11:10:52;;;;;;;9.23;3.00;;;;;;;;;;4242494;33;20060;-81
2023/07/24 11:13:19;;;;;;;4.93;3.25;;;;;;;;;;4236449;33;20074;-85
2023/07/24 11:15:46;;;;;;;2.95;2.75;;;;;;;;;;4249357;33;20467;-82
2023/07/24 11:18:12;;;;;;;7.90;3.03;;;;;;;;;;4249810;33;20050;-82
2023/07/24 11:20:59;;;;;;;5.18;3.00;;;;;;;;;;4246276;33;20063;-81
2023/07/24 11:23:26;;;;;;;4.43;2.97;;;;;;;;;;4233919;33;20047;-82
2023/07/24 11:25:53;;;;;;;6.25;3.12;;;;;;;;;;4236254;33;20690;-81
2023/07/24 11:28:19;;;;;;;3.35;3.00;;;;;;;;;;4233405;33;20043;-80
2023/07/24 11:30:46;;;;;;;10.38;2.90;;;;;;;;;;4210738;34;20121;-81
2023/07/24 11:33:13;;;;;;;9.02;3.10;;;;;;;;;;4236040;33;20307;-80
2023/07/24 11:35:40;;;;;;;16.08;2.90;;;;;;;;;;4246553;33;20087;-82
2023/07/24 11:38:08;;;;;;;7.97;3.03;;;;;;;;;;4237977;33;20051;-82
2023/07/24 11:40:40;;;;;;;5.97;2.72;;;;;;;;;;4251768;33;20232;-85
2023/07/24 11:43:17;;;;;;;7.80;3.17;;;;;;;;;;4221759;34;20039;-84
2023/07/24 11:45:45;;;;;;;3.08;2.62;;;;;;;;;;4195719;34;20039;-84
2023/07/24 11:48:12;;;;;;;7.00;2.75;;;;;;;;;;4210810;34;20042;-85
2023/07/24 11:50:49;;;;;;;6.65;2.95;;;;;;;;;;4221908;34;20495;-84
2023/07/24 11:53:20;;;;;;;5.50;2.83;;;;;;;;;;4218675;34;20429;-84
2023/07/24 11:55:47;;;;;;;;;;;;;;;;;;4221678;34;20093;-83
2023/07/24 11:58:14;;;;;;;6.65;3.00;;;;;;;;;;4222397;34;20004;-83
2023/07/24 12:00:41;;;;;;;5.82;2.35;;;;;;;;;;4221747;33;20457;-82
2023/07/24 12:03:08;;;;;;;4.35;3.05;;;;;;;;;;4222411;33;20073;-84
2023/07/24 12:05:39;;;;;;;3.20;2.90;;;;;;;;;;4248317;33;20439;-83
2023/07/24 12:08:07;;;;;;;13.55;3.20;;;;;;;;;;4250184;33;20578;-83
2023/07/24 12:10:36;;;;;;;7.75;2.70;;;;;;;;;;4250130;33;20396;-84
2023/07/24 12:13:03;;;;;;;2.95;2.70;;;;;;;;;;4249616;33;20034;-82
2023/07/24 12:15:29;;;;;;;15.18;3.53;;;;;;;;;;4250040;33;20058;-83
2023/07/24 12:17:56;;;;;;;3.12;2.92;;;;;;;;;;4248102;33;20042;-82
2023/07/24 12:20:23;;;;;;;3.15;2.85;;;;;;;;;;4261109;33;20696;-82
2023/07/24 12:22:49;;;;;;;9.48;3.92;;;;;;;;;;4278530;33;20046;-82
2023/07/24 12:25:16;;;;;;;3.58;3.28;;;;;;;;;;4250159;33;20072;-84
2023/07/24 12:27:42;;;;;;;3.53;3.22;;;;;;;;;;4234413;33;20440;-87
2023/07/24 12:30:09;;;;;;;3.33;2.83;;;;;;;;;;4240272;33;20847;-84
2023/07/24 12:32:35;;;;;;;3.40;3.10;;;;;;;;;;4166550;34;20089;-83
2023/07/24 12:35:04;;;;;;;3.28;2.97;;;;;;;;;;4192657;34;20051;-85
2023/07/24 12:37:30;;;;;;;3.65;3.15;;;;;;;;;;4179192;34;20835;-81
2023/07/24 12:39:57;;;;;;;3.97;3.60;;;;;;;;;;4164264;34;20062;-82
2023/07/24 12:42:23;;;;;;;9.93;3.35;;;;;;;;;;4184513;34;20082;-83
2023/07/24 12:44:49;;;;;;;3.62;3.17;;;;;;;;;;4193226;34;20486;-83
2023/07/24 12:47:16;;;;;;;7.93;3.70;;;;;;;;;;4193729;34;20031;-83
2023/07/24 12:49:42;;;;;;;6.30;3.25;;;;;;;;;;4194991;34;20075;-83
2023/07/24 12:52:08;;;;;;;5.20;2.95;;;;;;;;;;4193011;34;20031;-81
2023/07/24 12:54:35;;;;;;;6.60;3.20;;;;;;;;;;4192612;34;20325;-83
2023/07/24 12:57:02;;;;;;;6.78;2.92;;;;;;;;;;4182121;34;20417;-81
2023/07/24 12:59:28;;;;;;;3.22;2.92;;;;;;;;;;4167630;34;20080;-82
2023/07/24 13:01:54;;;;;;;14.15;3.58;;;;;;;;;;4159893;34;20090;-81
2023/07/24 13:04:22;;;;;;;7.70;3.15;;;;;;;;;;4228029;33;20072;-85
2023/07/24 13:06:48;;;;;;;10.43;3.70;;;;;;;;;;4239277;33;20055;-85
2023/07/24 13:09:14;;;;;;;4.10;3.45;;;;;;;;;;4239224;33;20048;-83
2023/07/24 13:11:42;;;;;;;14.82;4.20;;;;;;;;;;4227716;33;20034;-86
2023/07/24 13:14:09;;;;;;;4.12;3.65;;;;;;;;;;4225188;33;20065;-84
2023/07/24 13:16:36;;;;;;;3.70;3.40;;;;;;;;;;4222611;33;20047;-84
2023/07/24 13:19:04;;;;;;;9.10;3.67;;;;;;;;;;4212108;34;20288;-85
2023/07/24 13:21:30;;;;;;;7.18;4.00;;;;;;;;;;4234031;33;20089;-83
2023/07/24 13:23:59;;;;;;;8.13;3.10;;;;;;;;;;4237895;33;20417;-83
2023/07/24 13:26:25;;;;;;;5.43;4.05;;;;;;;;;;4236940;33;20035;-83
2023/07/24 13:28:51;;;;;;;6.00;3.70;;;;;;;;;;4238474;33;20058;-84
2023/07/24 13:31:18;;;;;;;4.22;3.83;;;;;;;;;;4238439;33;20042;-83
2023/07/24 13:33:45;;;;;;;7.87;3.90;;;;;;;;;;4241906;33;20219;-85
2023/07/24 13:36:13;;;;;;;9.10;3.85;;;;;;;;;;4247797;33;20474;-83
2023/07/24 13:38:42;;;;;;;7.68;3.95;;;;;;;;;;4247305;33;20056;-85
2023/07/24 13:41:08;;;;;;;16.15;4.07;;;;;;;;;;4223322;33;20078;-85
2023/07/24 13:43:34;;;;;;;8.80;4.03;;;;;;;;;;4222660;34;20066;-85
2023/07/24 13:46:04;;;;;;;6.50;4.45;;;;;;;;;;4219272;33;20381;-83
2023/07/24 13:48:31;;;;;;;8.77;3.92;;;;;;;;;;4234177;33;20071;-86
2023/07/24 13:50:57;;;;;;;10.93;3.87;;;;;;;;;;4263448;33;20038;-83
2023/07/24 13:53:25;;;;;;;4.05;3.65;;;;;;;;;;4259690;33;20042;-82
2023/07/24 13:55:51;;;;;;;4.53;3.60;;;;;;;;;;4256897;33;20571;-83
2023/07/24 13:58:19;;;;;;;4.80;4.00;;;;;;;;;;4227066;33;20050;-84
2023/07/24 14:00:45;;;;;;;11.88;4.62;;;;;;;;;;4200144;34;20052;-83
2023/07/24 14:03:13;;;;;;;7.65;4.80;;;;;;;;;;4206627;34;20107;-84
2023/07/24 14:05:39;;;;;;;12.73;4.32;;;;;;;;;;4198490;34;20048;-81
2023/07/24 14:08:06;;;;;;;6.18;4.78;;;;;;;;;;4194395;34;20051;-82
2023/07/24 14:10:32;;;;;;;6.82;4.43;;;;;;;;;;4194617;34;20047;-82
2023/07/24 14:12:59;;;;;;;6.82;4.45;;;;;;;;;;4205856;34;20043;-83
2023/07/24 14:15:25;;;;;;;5.03;4.47;;;;;;;;;;4219320;34;20031;-82
2023/07/24 14:17:54;;;;;;;5.97;3.85;;;;;;;;;;4224562;33;20077;-84
2023/07/24 14:20:20;;;;;;;6.37;4.62;;;;;;;;;;4222630;34;20129;-85
2023/07/24 14:22:46;;;;;;;5.50;4.18;;;;;;;;;;4222493;33;20432;-84
2023/07/24 14:25:13;;;;;;;5.07;4.53;;;;;;;;;;4219426;34;20454;-81
2023/07/24 14:27:39;;;;;;;6.35;3.70;;;;;;;;;;4223866;33;20077;-82
2023/07/24 14:30:05;;;;;;;13.65;4.35;;;;;;;;;;4262119;33;20029;-81
2023/07/24 14:32:32;;;;;;;4.70;4.10;;;;;;;;;;4269273;33;20385;-83
2023/07/24 14:34:58;;;;;;;15.98;5.05;;;;;;;;;;4271264;33;20065;-83
2023/07/24 14:37:24;;;;;;;7.28;4.37;;;;;;;;;;4253214;33;20050;-83
2023/07/24 14:39:50;;;;;;;10.35;4.20;;;;;;;;;;4223403;33;20087;-82
2023/07/24 14:42:17;;;;;;;3.90;3.60;;;;;;;;;;4223351;34;20065;-84
2023/07/24 14:44:43;;;;;;;8.57;5.28;;;;;;;;;;4223424;33;20172;-81
2023/07/24 14:47:09;;;;;;;7.87;4.22;;;;;;;;;;4236010;33;20058;-85
2023/07/24 14:49:37;;;;;;;4.95;4.18;;;;;;;;;;4245183;33;20072;-83
2023/07/24 14:52:04;;;;;;;10.38;4.60;;;;;;;;;;4222065;33;20108;-84
2023/07/24 14:54:30;;;;;;;6.00;5.03;;;;;;;;;;4222432;33;20229;-86
2023/07/24 14:56:57;;;;;;;6.85;4.78;;;;;;;;;;4222990;33;20384;-84
2023/07/24 14:59:23;;;;;;;13.80;4.72;;;;;;;;;;4223011;33;20035;-84
2023/07/24 15:01:50;;;;;;;5.07;4.55;;;;;;;;;;4220030;33;20377;-83
2023/07/24 15:04:24;;;;;;;6.28;5.03;;;;;;;;;;4210477;33;20098;-86
2023/07/24 15:06:58;;;;;;;12.13;4.40;;;;;;;;;;4217471;33;20418;-86
2023/07/24 15:09:39;;;;;;;11.48;5.28;;;;;;;;;;4210170;34;20118;-88
2023/07/24 15:12:15;;;;;;;26.12;6.18;;;;;;;;;;4249307;33;20072;-84
2023/07/24 15:14:51;;;;;;;10.90;5.35;;;;;;;;;;4236700;33;20058;-87
2023/07/24 15:17:27;;;;;;;5.72;4.75;;;;;;;;;;4250567;33;20050;-81
2023/07/24 15:19:53;;;;;;;7.30;5.15;;;;;;;;;;4264878;33;20092;-83
2023/07/24 15:22:20;;;;;;;7.15;4.93;;;;;;;;;;4266503;33;20073;-83
2023/07/24 15:24:46;;;;;;;8.48;5.07;;;;;;;;;;4280713;33;20064;-83
2023/07/24 15:27:13;;;;;;;8.25;5.03;;;;;;;;;;4279000;33;20057;-83
2023/07/24 15:29:39;;;;;;;9.00;5.75;;;;;;;;;;4281665;33;20394;-84
2023/07/24 15:32:06;;;;;;;7.10;4.97;;;;;;;;;;4281036;33;20041;-83
2023/07/24 15:34:33;;;;;;;6.37;4.90;;;;;;;;;;4281368;33;20038;-85
2023/07/24 15:36:59;;;;;;;10.88;5.07;;;;;;;;;;4280787;33;20057;-85
2023/07/24 15:39:25;;;;;;;8.05;4.82;;;;;;;;;;4278098;33;20045;-85
2023/07/24 15:41:58;;;;;;;6.43;4.87;;;;;;;;;;4281490;33;20771;-86
2023/07/24 15:44:25;;;;;;;15.48;5.55;;;;;;;;;;4280124;33;20025;-84
2023/07/24 15:46:51;;;;;;;8.68;5.60;;;;;;;;;;4279348;33;20455;-84
2023/07/24 15:49:17;;;;;;;9.43;6.68;;;;;;;;;;4279358;33;20079;-86
2023/07/24 15:51:45;;;;;;;10.23;5.53;;;;;;;;;;4278677;33;20075;-84
2023/07/24 15:54:11;;;;;;;13.20;5.35;;;;;;;;;;4273455;33;20063;-85
2023/07/24 15:56:43;;;;;;;14.02;5.55;;;;;;;;;;4268720;33;20053;-85
2023/07/24 15:59:10;;;;;;;7.65;5.70;;;;;;;;;;4264160;33;20109;-87
2023/07/24 16:01:36;;;;;;;22.05;6.37;;;;;;;;;;4259271;33;20437;-84
2023/07/24 16:04:03;;;;;;;13.02;5.37;;;;;;;;;;4281122;33;20045;-84
2023/07/24 16:06:29;;;;;;;12.37;5.45;;;;;;;;;;4278156;33;20307;-86
2023/07/24 16:08:55;;;;;;;9.10;5.32;;;;;;;;;;4278204;33;20041;-86
2023/07/24 16:11:21;;;;;;;11.55;5.28;;;;;;;;;;4273052;33;20053;-84
2023/07/24 16:13:47;;;;;;;9.10;5.35;;;;;;;;;;4263456;33;20547;-82
2023/07/24 16:16:15;;;;;;;11.00;5.78;;;;;;;;;;4249429;33;20172;-84
2023/07/24 16:18:41;;;;;;;11.25;5.85;;;;;;;;;;4235425;33;20047;-83
2023/07/24 16:21:08;;;;;;;6.90;5.20;;;;;;;;;;4235438;33;20111;-85
2023/07/24 16:23:34;;;;;;;15.15;6.00;;;;;;;;;;4234451;33;20453;-84
2023/07/24 16:26:02;;;;;;;11.02;5.40;;;;;;;;;;4236748;33;20080;-83
2023/07/24 16:28:28;;;;;;;10.65;5.53;;;;;;;;;;4216741;34;20150;-83
2023/07/24 16:30:57;;;;;;;17.25;5.57;;;;;;;;;;4213371;34;20073;-82
2023/07/24 16:33:24;;;;;;;11.30;5.80;;;;;;;;;;4206329;34;20035;-86
2023/07/24 16:35:56;;;;;;;12.45;5.43;;;;;;;;;;4208479;34;20938;-83
2023/07/24 16:38:23;;;;;;;14.45;5.93;;;;;;;;;;4198512;34;20551;-83
2023/07/24 16:40:51;;;;;;;12.23;5.82;;;;;;;;;;4202226;34;20043;-85